createdAt,value
2023-01-07T00:01:48.523Z,12.60
2023-01-07T00:04:15.779Z,12.60
2023-01-07T00:06:44.128Z,12.60
2023-01-07T00:09:12.964Z,12.60
2023-01-07T00:11:40.540Z,12.60
2023-01-07T00:14:08.719Z,12.60
2023-01-07T00:16:35.694Z,12.60
2023-01-07T00:19:04.178Z,12.60
2023-01-07T00:21:31.118Z,12.60
2023-01-07T00:23:59.533Z,12.60
2023-01-07T00:26:27.410Z,12.60
2023-01-07T00:28:54.214Z,12.50
2023-01-07T00:31:22.710Z,12.60
2023-01-07T00:34:06.491Z,12.50
2023-01-07T00:36:38.746Z,12.50
2023-01-07T00:39:23.604Z,12.50
2023-01-07T00:42:08.883Z,12.50
2023-01-07T00:44:36.944Z,12.60
2023-01-07T00:47:03.637Z,12.50
2023-01-07T00:49:30.393Z,12.60
2023-01-07T00:51:57.084Z,12.50
2023-01-07T00:54:24.034Z,12.50
2023-01-07T00:56:50.729Z,12.50
2023-01-07T00:59:17.370Z,12.50
2023-01-07T01:01:44.155Z,12.50
2023-01-07T01:04:10.982Z,12.50
2023-01-07T01:06:37.693Z,12.50
2023-01-07T01:09:04.337Z,12.50
2023-01-07T01:11:31.018Z,12.50
2023-01-07T01:13:57.671Z,12.50
2023-01-07T01:16:24.376Z,12.50
2023-01-07T01:18:51.099Z,12.40
2023-01-07T01:21:18.821Z,12.50
2023-01-07T01:23:45.560Z,12.50
2023-01-07T01:26:16.678Z,12.50
2023-01-07T01:28:43.739Z,12.50
2023-01-07T01:31:10.640Z,12.50
2023-01-07T01:33:37.389Z,12.50
2023-01-07T01:36:08.194Z,12.50
2023-01-07T01:38:35.019Z,12.50
2023-01-07T01:41:01.889Z,12.50
2023-01-07T01:43:32.859Z,12.50
2023-01-07T01:46:15.906Z,12.50
2023-01-07T01:49:05.077Z,12.50
2023-01-07T01:51:34.656Z,12.50
2023-01-07T01:54:05.372Z,12.50
2023-01-07T01:56:34.534Z,12.50
2023-01-07T01:59:03.455Z,12.50
2023-01-07T02:01:32.701Z,12.50
2023-01-07T02:04:00.786Z,12.50
2023-01-07T02:06:30.034Z,12.50
2023-01-07T02:08:56.744Z,12.50
2023-01-07T02:11:38.575Z,12.50
2023-01-07T02:14:29.836Z,12.50
2023-01-07T02:17:20.866Z,12.40
2023-01-07T02:19:53.914Z,12.40
2023-01-07T02:22:23.580Z,12.40
2023-01-07T02:25:11.305Z,12.40
2023-01-07T02:27:46.891Z,12.40
2023-01-07T02:30:34.636Z,12.40
2023-01-07T02:33:25.988Z,12.40
2023-01-07T02:36:22.771Z,12.40
2023-01-07T02:38:49.430Z,12.40
2023-01-07T02:41:29.322Z,12.40
2023-01-07T02:44:26.304Z,12.40
2023-01-07T02:47:14.099Z,12.40
2023-01-07T02:49:40.811Z,12.30
2023-01-07T02:52:22.287Z,12.30
2023-01-07T02:55:12.648Z,12.30
2023-01-07T02:58:01.223Z,12.30
2023-01-07T03:00:49.302Z,12.30
2023-01-07T03:03:34.954Z,12.30
2023-01-07T03:06:10.857Z,12.30
2023-01-07T03:08:52.577Z,12.20
2023-01-07T03:11:19.824Z,12.20
2023-01-07T03:13:58.786Z,12.20
2023-01-07T03:16:39.264Z,12.20
2023-01-07T03:19:17.369Z,12.20
2023-01-07T03:21:45.126Z,12.20
2023-01-07T03:24:11.827Z,12.20
2023-01-07T03:26:40.849Z,12.20
2023-01-07T03:29:08.787Z,12.20
2023-01-07T03:31:35.536Z,12.20
2023-01-07T03:34:12.659Z,12.20
2023-01-07T03:36:44.833Z,12.20
2023-01-07T03:39:11.513Z,12.20
2023-01-07T03:41:57.609Z,12.20
2023-01-07T03:44:24.339Z,12.20
2023-01-07T03:46:51.207Z,12.10
2023-01-07T03:49:17.935Z,12.10
2023-01-07T03:51:46.050Z,12.10
2023-01-07T03:54:13.157Z,12.10
2023-01-07T03:56:39.910Z,12.10
2023-01-07T03:59:06.561Z,12.10
2023-01-07T04:01:33.309Z,12.00
2023-01-07T04:04:03.025Z,12.00
2023-01-07T04:06:29.966Z,12.00
2023-01-07T04:08:56.651Z,12.00
2023-01-07T04:11:23.377Z,11.90
2023-01-07T04:13:50.092Z,11.90
2023-01-07T04:16:16.872Z,11.90
2023-01-07T04:18:43.681Z,11.90
2023-01-07T04:21:10.349Z,11.80
2023-01-07T04:23:37.037Z,11.80
2023-01-07T04:26:03.900Z,11.80
2023-01-07T04:28:30.597Z,11.80
2023-01-07T04:30:59.575Z,11.80
2023-01-07T04:33:26.448Z,11.80
2023-01-07T04:35:53.099Z,11.80
2023-01-07T04:38:19.798Z,11.70
2023-01-07T04:40:46.454Z,11.80
2023-01-07T04:43:13.132Z,11.80
2023-01-07T04:45:39.804Z,11.70
2023-01-07T04:48:06.742Z,11.70
2023-01-07T04:50:33.562Z,11.70
2023-01-07T04:53:00.243Z,11.70
2023-01-07T04:55:26.916Z,11.60
2023-01-07T04:57:53.606Z,11.60
2023-01-07T05:00:20.415Z,11.60
2023-01-07T05:02:47.119Z,11.60
2023-01-07T05:05:13.798Z,11.60
2023-01-07T05:07:40.483Z,11.50
2023-01-07T05:10:07.697Z,11.50
2023-01-07T05:12:37.640Z,11.50
2023-01-07T05:15:05.212Z,11.50
2023-01-07T05:17:32.063Z,11.50
2023-01-07T05:19:58.996Z,11.50
2023-01-07T05:22:25.709Z,11.50
2023-01-07T05:24:52.445Z,11.50
2023-01-07T05:27:19.117Z,11.50
2023-01-07T05:29:45.770Z,11.50
2023-01-07T05:32:12.507Z,11.50
2023-01-07T05:34:39.146Z,11.50
2023-01-07T05:37:05.795Z,11.50
2023-01-07T05:39:32.514Z,11.50
2023-01-07T05:41:59.474Z,11.50
2023-01-07T05:44:26.236Z,11.50
2023-01-07T05:46:52.903Z,11.50
2023-01-07T05:49:19.703Z,11.50
2023-01-07T05:51:46.416Z,11.50
2023-01-07T05:54:13.076Z,11.40
2023-01-07T05:56:39.724Z,11.40
2023-01-07T05:59:06.372Z,11.40
2023-01-07T06:01:33.294Z,11.50
2023-01-07T06:04:00.037Z,11.40
2023-01-07T06:06:26.729Z,11.40
2023-01-07T06:08:53.486Z,11.40
2023-01-07T06:11:20.389Z,11.40
2023-01-07T06:13:47.069Z,11.40
2023-01-07T06:16:13.884Z,11.40
2023-01-07T06:18:40.615Z,11.30
2023-01-07T06:21:07.382Z,11.30
2023-01-07T06:23:34.156Z,11.30
2023-01-07T06:26:00.965Z,11.30
2023-01-07T06:28:27.710Z,11.30
2023-01-07T06:30:54.513Z,11.30
2023-01-07T06:33:21.358Z,11.30
2023-01-07T06:35:48.280Z,11.30
2023-01-07T06:38:15.131Z,11.30
2023-01-07T06:40:41.853Z,11.30
2023-01-07T06:43:08.505Z,11.30
2023-01-07T06:45:35.279Z,11.30
2023-01-07T06:48:02.353Z,11.30
2023-01-07T06:50:29.010Z,11.30
2023-01-07T06:52:56.907Z,11.30
2023-01-07T06:55:23.617Z,11.20
2023-01-07T06:57:50.362Z,11.20
2023-01-07T07:00:17.538Z,11.20
2023-01-07T07:02:44.230Z,11.30
2023-01-07T07:05:11.403Z,11.30
2023-01-07T07:07:38.094Z,11.20
2023-01-07T07:10:07.506Z,11.30
2023-01-07T07:12:35.155Z,11.30
2023-01-07T07:15:01.837Z,11.30
2023-01-07T07:17:28.507Z,11.20
2023-01-07T07:19:55.342Z,11.20
2023-01-07T07:22:22.461Z,11.20
2023-01-07T07:24:49.157Z,11.30
2023-01-07T07:27:17.016Z,11.30
2023-01-07T07:29:43.735Z,11.30
2023-01-07T07:32:10.481Z,11.30
2023-01-07T07:34:37.176Z,11.30
2023-01-07T07:37:03.892Z,11.30
2023-01-07T07:39:30.670Z,11.30
2023-01-07T07:41:57.310Z,11.30
2023-01-07T07:44:24.116Z,11.30
2023-01-07T07:46:50.870Z,11.30
2023-01-07T07:49:17.835Z,11.30
2023-01-07T07:51:44.531Z,11.30
2023-01-07T07:54:11.261Z,11.30
2023-01-07T07:56:37.938Z,11.30
2023-01-07T07:59:04.607Z,11.30
2023-01-07T08:01:31.412Z,11.30
2023-01-07T08:03:58.272Z,11.30
2023-01-07T08:06:24.961Z,11.20
2023-01-07T08:08:51.609Z,11.30
2023-01-07T08:11:18.272Z,11.30
2023-01-07T08:13:45.074Z,11.30
2023-01-07T08:16:11.816Z,11.30
2023-01-07T08:18:39.965Z,11.30
2023-01-07T08:21:06.868Z,11.30
2023-01-07T08:23:34.742Z,11.30
2023-01-07T08:26:03.079Z,11.30
2023-01-07T08:28:31.148Z,11.30
2023-01-07T08:31:00.517Z,11.30
2023-01-07T08:33:27.272Z,11.30
2023-01-07T08:35:53.969Z,11.30
2023-01-07T08:38:20.683Z,11.30
2023-01-07T08:40:47.365Z,11.30
2023-01-07T08:43:14.102Z,11.30
2023-01-07T08:45:40.739Z,11.20
2023-01-07T08:48:07.512Z,11.20
2023-01-07T08:50:34.328Z,11.20
2023-01-07T08:53:01.151Z,11.20
2023-01-07T08:55:27.933Z,11.10
2023-01-07T08:57:54.637Z,11.10
2023-01-07T09:00:21.474Z,11.00
2023-01-07T09:02:48.310Z,11.00
2023-01-07T09:05:15.141Z,11.00
2023-01-07T09:07:41.942Z,11.00
2023-01-07T09:10:09.385Z,10.90
2023-01-07T09:12:36.174Z,10.90
2023-01-07T09:15:02.932Z,10.80
2023-01-07T09:17:29.659Z,10.80
2023-01-07T09:19:56.445Z,10.80
2023-01-07T09:22:23.164Z,10.80
2023-01-07T09:24:49.880Z,10.80
2023-01-07T09:27:19.104Z,10.80
2023-01-07T09:29:45.901Z,10.70
2023-01-07T09:32:12.639Z,10.70
2023-01-07T09:34:39.349Z,10.70
2023-01-07T09:37:06.422Z,10.70
2023-01-07T09:39:33.245Z,10.60
2023-01-07T09:42:23.415Z,10.60
2023-01-07T09:45:10.280Z,10.60
2023-01-07T09:47:38.192Z,10.60
2023-01-07T09:50:17.485Z,10.50
2023-01-07T09:52:46.053Z,10.50
2023-01-07T09:55:31.895Z,10.50
2023-01-07T09:58:02.128Z,10.40
2023-01-07T10:00:28.932Z,10.40
2023-01-07T10:02:58.877Z,10.40
2023-01-07T10:05:37.395Z,10.40
2023-01-07T10:08:30.533Z,10.40
2023-01-07T10:11:34.596Z,10.40
2023-01-07T10:14:04.184Z,10.40
2023-01-07T10:16:45.814Z,10.40
2023-01-07T10:19:38.353Z,10.40
2023-01-07T10:22:28.602Z,10.40
2023-01-07T10:24:57.834Z,10.40
2023-01-07T10:27:37.879Z,10.30
2023-01-07T10:30:07.508Z,10.40
2023-01-07T10:32:36.557Z,10.40
2023-01-07T10:35:03.475Z,10.40
2023-01-07T10:37:33.971Z,10.40
2023-01-07T10:40:18.950Z,10.40
2023-01-07T10:43:14.915Z,10.50
2023-01-07T10:46:06.135Z,10.50
2023-01-07T10:48:33.130Z,10.50
2023-01-07T10:51:11.953Z,10.50
2023-01-07T10:53:54.129Z,10.50
2023-01-07T10:56:26.439Z,10.60
2023-01-07T10:58:53.324Z,10.60
2023-01-07T11:01:26.864Z,10.60
2023-01-07T11:03:55.073Z,10.60
2023-01-07T11:06:40.721Z,10.60
2023-01-07T11:09:11.058Z,10.60
2023-01-07T11:11:37.957Z,10.70
2023-01-07T11:14:26.573Z,10.70
2023-01-07T11:16:57.181Z,10.70
2023-01-07T11:19:27.343Z,10.70
2023-01-07T11:21:54.048Z,10.80
2023-01-07T11:24:32.225Z,10.80
2023-01-07T11:27:19.559Z,10.80
2023-01-07T11:29:54.905Z,10.70
2023-01-07T11:32:28.812Z,10.80
2023-01-07T11:35:02.305Z,10.80
2023-01-07T11:37:33.320Z,10.80
2023-01-07T11:40:01.377Z,10.80
2023-01-07T11:42:40.933Z,10.90
2023-01-07T11:45:08.336Z,10.90
2023-01-07T11:47:36.527Z,10.90
2023-01-07T11:50:03.302Z,11.00
2023-01-07T11:52:30.071Z,11.00
2023-01-07T11:54:56.974Z,11.00
2023-01-07T11:57:25.415Z,11.00
2023-01-07T12:00:18.812Z,11.10
2023-01-07T12:02:45.631Z,11.10
2023-01-07T12:05:22.953Z,11.10
2023-01-07T12:07:50.438Z,11.10
2023-01-07T12:10:36.305Z,11.20
2023-01-07T12:13:05.584Z,11.10
2023-01-07T12:15:37.591Z,11.10
2023-01-07T12:18:07.348Z,11.00
2023-01-07T12:20:37.081Z,11.00
2023-01-07T12:23:03.815Z,11.00
2023-01-07T12:25:45.607Z,11.10
2023-01-07T12:28:16.531Z,11.20
2023-01-07T12:31:18.751Z,11.30
2023-01-07T12:33:56.448Z,11.30
2023-01-07T12:36:31.997Z,11.40
2023-01-07T12:38:59.589Z,11.40
2023-01-07T12:41:29.232Z,11.40
2023-01-07T12:44:06.488Z,11.40
2023-01-07T12:46:38.819Z,11.40
2023-01-07T12:49:26.261Z,11.40
2023-01-07T12:52:15.157Z,11.40
2023-01-07T12:54:44.819Z,11.40
2023-01-07T12:57:15.800Z,11.30
2023-01-07T12:59:57.798Z,11.30
2023-01-07T13:02:41.767Z,11.30
2023-01-07T13:05:14.502Z,11.40
2023-01-07T13:08:06.143Z,11.30
2023-01-07T13:10:41.384Z,11.30
2023-01-07T13:13:14.774Z,11.30
2023-01-07T13:15:41.765Z,11.20
2023-01-07T13:18:17.310Z,11.30
2023-01-07T13:21:00.975Z,11.20
2023-01-07T13:23:31.878Z,11.20
2023-01-07T13:26:26.923Z,11.20
2023-01-07T13:29:21.086Z,11.30
2023-01-07T13:32:17.291Z,11.30
2023-01-07T13:35:12.038Z,11.40
2023-01-07T13:37:38.755Z,11.40
2023-01-07T13:40:24.342Z,11.40
2023-01-07T13:43:01.871Z,11.30
2023-01-07T13:45:30.573Z,11.30
2023-01-07T13:47:58.778Z,11.30
2023-01-07T13:50:33.759Z,11.30
2023-01-07T13:53:05.614Z,11.30
2023-01-07T13:55:36.588Z,11.30
2023-01-07T13:58:10.213Z,11.40
2023-01-07T14:00:47.958Z,11.50
2023-01-07T14:03:39.117Z,11.50
2023-01-07T14:06:29.147Z,11.60
2023-01-07T14:09:07.898Z,11.60
2023-01-07T14:11:36.189Z,11.60
2023-01-07T14:14:14.902Z,11.70
2023-01-07T14:17:12.932Z,11.70
2023-01-07T14:20:17.344Z,11.70
2023-01-07T14:23:16.097Z,11.60
2023-01-07T14:25:51.448Z,11.50
2023-01-07T14:28:47.398Z,11.50
2023-01-07T14:31:28.148Z,11.40
2023-01-07T14:34:01.975Z,11.40
2023-01-07T14:37:06.335Z,11.40
2023-01-07T14:39:37.100Z,11.50
2023-01-07T14:42:19.064Z,11.50
2023-01-07T14:44:51.841Z,11.60
2023-01-07T14:47:52.135Z,11.70
2023-01-07T14:50:19.119Z,11.80
2023-01-07T14:53:13.597Z,11.90
2023-01-07T14:56:08.197Z,11.90
2023-01-07T14:58:56.208Z,11.80
2023-01-07T15:01:23.126Z,11.80
2023-01-07T15:04:08.023Z,11.80
2023-01-07T15:06:35.926Z,11.80
2023-01-07T15:09:38.897Z,11.80
2023-01-07T15:12:26.975Z,11.80
2023-01-07T15:15:34.055Z,11.80
2023-01-07T15:18:00.984Z,11.80
2023-01-07T15:20:39.487Z,11.70
2023-01-07T15:23:14.195Z,11.60
2023-01-07T15:25:55.369Z,11.50
2023-01-07T15:28:45.667Z,11.40
2023-01-07T15:31:28.765Z,11.30
2023-01-07T15:34:09.509Z,11.10
2023-01-07T15:36:42.458Z,10.90
2023-01-07T15:39:18.539Z,10.80
2023-01-07T15:41:45.368Z,10.50
2023-01-07T15:44:21.096Z,10.30
2023-01-07T15:46:47.896Z,10.20
2023-01-07T15:49:17.037Z,10.10
2023-01-07T15:51:45.180Z,10.00
2023-01-07T15:54:41.448Z,10.00
2023-01-07T15:57:25.519Z,9.90
2023-01-07T15:59:52.607Z,9.90
2023-01-07T16:02:27.959Z,9.90
2023-01-07T16:04:59.091Z,10.00
2023-01-07T16:07:33.164Z,10.00
2023-01-07T16:10:00.147Z,10.10
2023-01-07T16:12:35.581Z,10.10
2023-01-07T16:15:20.286Z,10.20
2023-01-07T16:18:09.967Z,10.30
2023-01-07T16:20:38.563Z,10.30
2023-01-07T16:23:08.263Z,10.30
2023-01-07T16:25:37.217Z,10.30
2023-01-07T16:28:03.900Z,10.30
2023-01-07T16:30:30.721Z,10.30
2023-01-07T16:32:57.530Z,10.30
2023-01-07T16:35:33.081Z,10.30
2023-01-07T16:38:00.615Z,10.30
2023-01-07T16:40:35.964Z,10.40
2023-01-07T16:43:03.435Z,10.40
2023-01-07T16:45:33.870Z,10.50
2023-01-07T16:48:02.590Z,10.50
2023-01-07T16:50:37.659Z,10.50
2023-01-07T16:53:04.765Z,10.50
2023-01-07T16:55:50.381Z,10.50
2023-01-07T16:58:45.762Z,10.50
2023-01-07T17:01:12.620Z,10.40
2023-01-07T17:03:54.479Z,10.30
2023-01-07T17:06:40.599Z,10.20
2023-01-07T17:09:07.294Z,10.10
2023-01-07T17:11:37.924Z,10.10
2023-01-07T17:14:04.956Z,10.00
2023-01-07T17:16:34.985Z,10.00
2023-01-07T17:19:24.915Z,9.90
2023-01-07T17:21:51.811Z,9.90
2023-01-07T17:24:27.702Z,9.80
2023-01-07T17:26:59.569Z,9.80
2023-01-07T17:29:31.033Z,9.70
2023-01-07T17:31:57.785Z,9.70
2023-01-07T17:34:25.271Z,9.70
2023-01-07T17:36:52.059Z,9.60
2023-01-07T17:39:18.731Z,9.50
2023-01-07T17:42:04.204Z,9.50
2023-01-07T17:44:31.145Z,9.40
2023-01-07T17:46:57.779Z,9.40
2023-01-07T17:49:24.510Z,9.30
2023-01-07T17:51:53.861Z,9.30
2023-01-07T17:54:24.655Z,9.30
2023-01-07T17:56:52.063Z,9.40
2023-01-07T17:59:25.031Z,9.40
2023-01-07T18:01:52.581Z,9.40
2023-01-07T18:04:21.465Z,9.40
2023-01-07T18:06:48.195Z,9.50
2023-01-07T18:09:14.939Z,9.40
2023-01-07T18:12:01.904Z,8.90
2023-01-07T18:14:28.612Z,8.40
2023-01-07T18:16:55.256Z,8.10
2023-01-07T18:19:22.065Z,8.00
2023-01-07T18:21:48.765Z,7.90
2023-01-07T18:24:19.973Z,7.80
2023-01-07T18:26:46.977Z,7.70
2023-01-07T18:29:14.040Z,7.60
2023-01-07T18:31:42.510Z,7.60
2023-01-07T18:34:13.205Z,7.50
2023-01-07T18:36:39.985Z,7.50
2023-01-07T18:39:09.815Z,7.40
2023-01-07T18:41:39.002Z,7.30
2023-01-07T18:44:05.791Z,7.30
2023-01-07T18:46:32.462Z,7.30
2023-01-07T18:48:59.838Z,7.20
2023-01-07T18:51:26.518Z,7.20
2023-01-07T18:53:53.207Z,7.20
2023-01-07T18:56:20.095Z,7.10
2023-01-07T18:58:47.046Z,7.10
2023-01-07T19:01:13.855Z,7.10
2023-01-07T19:03:41.435Z,7.10
2023-01-07T19:06:08.975Z,7.10
2023-01-07T19:08:35.743Z,7.10
2023-01-07T19:11:05.874Z,7.10
2023-01-07T19:13:32.575Z,7.10
2023-01-07T19:15:59.210Z,7.20
2023-01-07T19:18:25.861Z,7.20
2023-01-07T19:20:52.524Z,7.20
2023-01-07T19:23:19.176Z,7.20
2023-01-07T19:25:55.586Z,7.20
2023-01-07T19:28:22.231Z,7.20
2023-01-07T19:30:48.880Z,7.20
2023-01-07T19:33:15.600Z,7.20
2023-01-07T19:35:42.286Z,7.30
2023-01-07T19:38:08.984Z,7.30
2023-01-07T19:40:35.816Z,7.30
2023-01-07T19:43:02.443Z,7.30
2023-01-07T19:45:29.270Z,7.30
2023-01-07T19:47:56.022Z,7.30
2023-01-07T19:50:22.769Z,7.40
2023-01-07T19:52:49.402Z,7.40
2023-01-07T19:55:16.213Z,7.40
2023-01-07T19:57:43.095Z,7.40
2023-01-07T20:00:10.819Z,7.40
2023-01-07T20:02:37.698Z,7.40
2023-01-07T20:05:04.689Z,7.40
2023-01-07T20:07:36.435Z,7.40
2023-01-07T20:10:03.231Z,7.40
2023-01-07T20:12:29.991Z,7.40
2023-01-07T20:14:56.628Z,7.40
2023-01-07T20:17:23.347Z,7.40
2023-01-07T20:19:50.464Z,7.40
2023-01-07T20:22:17.108Z,7.40
2023-01-07T20:24:43.888Z,7.40
2023-01-07T20:27:10.655Z,7.40
2023-01-07T20:29:38.717Z,7.40
2023-01-07T20:32:08.102Z,7.40
2023-01-07T20:34:34.867Z,7.40
2023-01-07T20:37:01.663Z,7.40
2023-01-07T20:39:28.436Z,7.40
2023-01-07T20:41:55.158Z,7.40
2023-01-07T20:44:21.982Z,7.40
2023-01-07T20:46:48.800Z,7.40
2023-01-07T20:49:15.863Z,7.40
2023-01-07T20:51:42.573Z,7.40
2023-01-07T20:54:09.285Z,7.40
2023-01-07T20:56:36.264Z,7.40
2023-01-07T20:59:03.927Z,7.40
2023-01-07T21:01:30.761Z,7.40
2023-01-07T21:03:57.734Z,7.40
2023-01-07T21:06:24.604Z,7.40
2023-01-07T21:08:51.447Z,7.40
2023-01-07T21:11:20.070Z,7.50
2023-01-07T21:13:47.080Z,7.50
2023-01-07T21:16:14.068Z,7.50
2023-01-07T21:18:41.168Z,7.50
2023-01-07T21:21:16.031Z,7.60
2023-01-07T21:23:43.521Z,7.60
2023-01-07T21:26:10.554Z,7.70
2023-01-07T21:28:37.348Z,7.70
2023-01-07T21:31:09.138Z,7.70
2023-01-07T21:33:36.238Z,7.70
2023-01-07T21:36:10.673Z,7.70
2023-01-07T21:38:37.658Z,7.80
2023-01-07T21:41:12.334Z,7.80
2023-01-07T21:43:39.067Z,7.80
2023-01-07T21:46:06.251Z,7.90
2023-01-07T21:48:36.803Z,7.90
2023-01-07T21:51:04.055Z,7.90
2023-01-07T21:53:31.701Z,7.80
2023-01-07T21:55:58.577Z,7.90
2023-01-07T21:58:25.326Z,7.90
2023-01-07T22:00:52.938Z,7.90
2023-01-07T22:03:19.770Z,7.90
2023-01-07T22:05:56.191Z,7.90
2023-01-07T22:08:22.897Z,7.90
2023-01-07T22:10:49.761Z,7.90
2023-01-07T22:13:16.593Z,7.90
2023-01-07T22:15:43.302Z,7.90
2023-01-07T22:18:10.085Z,7.80
2023-01-07T22:20:36.756Z,7.80
2023-01-07T22:23:03.533Z,7.80
2023-01-07T22:25:30.208Z,7.90
2023-01-07T22:27:57.977Z,7.80
2023-01-07T22:30:26.498Z,7.80
2023-01-07T22:32:53.264Z,7.80
2023-01-07T22:35:20.344Z,7.80
2023-01-07T22:37:47.072Z,7.70
2023-01-07T22:40:13.788Z,7.70
2023-01-07T22:42:53.296Z,7.70
2023-01-07T22:45:41.101Z,7.70
2023-01-07T22:48:09.213Z,7.70
2023-01-07T22:50:36.223Z,7.80
2023-01-07T22:53:02.880Z,7.80
2023-01-07T22:55:29.597Z,7.80
2023-01-07T22:57:56.254Z,7.80
2023-01-07T23:00:39.973Z,7.80
2023-01-07T23:03:06.933Z,7.80
2023-01-07T23:05:35.856Z,7.90
2023-01-07T23:08:02.672Z,7.90
2023-01-07T23:10:32.335Z,8.00
2023-01-07T23:12:59.792Z,8.00
2023-01-07T23:15:26.628Z,8.00
2023-01-07T23:17:54.012Z,8.00
2023-01-07T23:20:20.845Z,8.10
2023-01-07T23:22:47.703Z,8.10
2023-01-07T23:25:14.525Z,8.10
2023-01-07T23:27:41.333Z,8.10
2023-01-07T23:30:08.621Z,8.20
2023-01-07T23:32:35.311Z,8.20
2023-01-07T23:35:01.982Z,8.20
2023-01-07T23:37:28.679Z,8.20
2023-01-07T23:39:55.307Z,8.20
2023-01-07T23:42:22.165Z,8.20
2023-01-07T23:44:48.886Z,8.20
2023-01-07T23:47:15.858Z,8.10
2023-01-07T23:49:42.563Z,8.10
2023-01-07T23:52:09.254Z,8.20
2023-01-07T23:54:35.964Z,8.20
2023-01-07T23:57:02.696Z,8.20
2023-01-07T23:59:29.367Z,8.20
